Time;durP1;ratioP1;P1;durP2;ratioP2;P2;SDS_P1;SDS_P2;PMS_P1;PMS_P2;Temp;Humidity;BMP_temperature;BMP_pressure;BME280_temperature;BME280_humidity;BME280_pressure;Samples;Min_cycle;Max_cycle;Signal;HPM_P1;HPM_P2
2022/06/06 00:01:42;;;;;;;10.98;9.85;;;15.20;99.90;;;;;;5029456;28;20061;-68
2022/06/06 00:04:07;;;;;;;10.23;8.32;;;15.20;99.90;;;;;;5029304;28;20064;-68
2022/06/06 00:06:33;;;;;;;13.27;10.70;;;15.20;99.90;;;;;;5028652;28;20053;-67
2022/06/06 00:08:59;;;;;;;20.95;12.27;;;15.20;99.90;;;;;;5029530;28;20131;-67
2022/06/06 00:11:25;;;;;;;12.40;9.32;;;15.10;99.90;;;;;;5022844;28;20033;-67
2022/06/06 00:13:51;;;;;;;12.48;9.32;;;15.20;99.90;;;;;;5028643;28;20087;-67
2022/06/06 00:16:17;;;;;;;10.98;9.18;;;15.10;99.90;;;;;;5028989;28;20041;-67
2022/06/06 00:18:43;;;;;;;11.98;9.50;;;15.10;99.90;;;;;;5027711;28;20042;-67
2022/06/06 00:21:11;;;;;;;12.48;10.00;;;15.10;99.90;;;;;;5029522;28;20045;-67
2022/06/06 00:23:38;;;;;;;9.38;8.02;;;15.10;99.90;;;;;;5027668;28;20083;-67
2022/06/06 00:26:10;;;;;;;22.83;11.45;;;15.10;99.90;;;;;;5028028;28;20120;-67
2022/06/06 00:28:37;;;;;;;9.48;8.57;;;15.10;99.90;;;;;;5025060;28;20073;-65
2022/06/06 00:36:34;;;;;;;13.00;9.48;;;15.10;99.90;;;;;;5027168;28;20057;-66
2022/06/06 00:39:00;;;;;;;22.27;12.50;;;15.00;99.90;;;;;;5029048;28;20053;-66
2022/06/06 00:41:26;;;;;;;13.30;9.98;;;15.00;99.90;;;;;;5023174;28;20036;-66
2022/06/06 00:44:08;;;;;;;14.05;9.77;;;15.00;99.90;;;;;;5030417;28;20120;-66
2022/06/06 00:46:39;;;;;;;11.80;8.77;;;15.00;99.90;;;;;;5028314;28;20073;-66
2022/06/06 00:49:08;;;;;;;10.32;8.60;;;15.00;99.90;;;;;;5042019;28;20045;-66
2022/06/06 00:51:35;;;;;;;10.10;7.50;;;14.90;99.90;;;;;;5049637;28;20048;-67
2022/06/06 00:54:03;;;;;;;12.00;8.20;;;14.90;99.90;;;;;;5030490;28;20053;-67
2022/06/06 00:56:38;;;;;;;18.27;9.13;;;14.90;99.90;;;;;;5043203;28;20428;-67
2022/06/06 00:59:09;;;;;;;12.15;9.07;;;14.90;99.90;;;;;;5044248;28;20040;-67
2022/06/06 01:01:36;;;;;;;8.77;7.40;;;14.90;99.90;;;;;;5031018;28;20040;-67
2022/06/06 01:04:04;;;;;;;9.15;7.68;;;14.90;99.90;;;;;;5049133;28;20063;-68
2022/06/06 01:06:35;;;;;;;12.70;8.00;;;14.80;99.90;;;;;;5029985;28;20033;-68
2022/06/06 01:09:01;;;;;;;12.82;8.50;;;14.80;99.90;;;;;;5046797;28;20041;-68
2022/06/06 01:11:26;;;;;;;17.45;9.38;;;14.80;99.90;;;;;;5009734;28;20045;-68
2022/06/06 01:13:54;;;;;;;13.20;8.60;;;14.80;99.90;;;;;;5030202;28;20056;-68
2022/06/06 01:16:28;;;;;;;9.63;7.82;;;14.80;99.90;;;;;;5046258;28;20103;-68
2022/06/06 01:19:19;;;;;;;13.48;9.25;;;14.80;99.90;;;;;;5032356;28;20125;-68
2022/06/06 01:22:18;;;;;;;16.38;10.48;;;14.80;99.90;;;;;;5049590;28;20043;-68
2022/06/06 01:25:10;;;;;;;11.27;7.90;;;14.80;99.90;;;;;;5028931;28;20124;-68
2022/06/06 01:27:54;;;;;;;11.02;8.57;;;14.70;99.90;;;;;;5029528;28;20037;-68
2022/06/06 01:30:23;;;;;;;9.02;7.95;;;14.70;99.90;;;;;;5049310;28;20123;-68
2022/06/06 01:32:54;;;;;;;17.70;10.20;;;14.70;99.90;;;;;;5033857;28;20132;-68
2022/06/06 01:35:29;;;;;;;9.77;8.10;;;14.70;99.90;;;;;;5050668;28;20044;-68
2022/06/06 01:37:55;;;;;;;11.07;8.77;;;14.70;99.90;;;;;;5034459;28;20049;-68
2022/06/06 01:40:23;;;;;;;12.48;9.95;;;14.70;99.90;;;;;;5052654;28;20052;-68
2022/06/06 01:42:54;;;;;;;11.35;8.68;;;14.70;99.90;;;;;;5033888;28;20473;-68
2022/06/06 01:45:43;;;;;;;14.95;10.10;;;14.60;99.90;;;;;;5049305;28;20453;-68
2022/06/06 01:48:18;;;;;;;16.73;9.63;;;14.60;99.90;;;;;;5019624;28;20044;-67
2022/06/06 01:50:44;;;;;;;16.35;11.38;;;14.60;99.90;;;;;;5033390;28;20049;-67
2022/06/06 01:53:16;;;;;;;17.90;11.35;;;14.60;99.90;;;;;;5032017;28;20434;-67
2022/06/06 01:55:46;;;;;;;19.67;11.88;;;14.60;99.90;;;;;;5051378;28;20044;-67
2022/06/06 01:58:18;;;;;;;17.80;10.88;;;14.60;99.90;;;;;;5046707;28;20128;-67
2022/06/06 02:00:43;;;;;;;14.90;10.18;;;14.60;99.90;;;;;;5050613;28;20033;-67
2022/06/06 02:03:09;;;;;;;13.25;8.70;;;14.60;99.90;;;;;;5035590;28;20392;-67
2022/06/06 02:05:36;;;;;;;15.25;10.27;;;14.60;99.90;;;;;;5049766;28;20036;-67
2022/06/06 02:08:03;;;;;;;13.20;9.40;;;14.60;99.90;;;;;;5051488;28;20048;-67
2022/06/06 02:10:28;;;;;;;19.83;11.07;;;14.60;99.90;;;;;;5050578;28;20444;-67
2022/06/06 02:12:54;;;;;;;13.82;9.50;;;14.50;99.90;;;;;;5051709;28;20124;-67
2022/06/06 02:15:25;;;;;;;12.30;9.20;;;14.50;99.90;;;;;;5050142;28;20435;-67
2022/06/06 02:17:52;;;;;;;17.73;10.15;;;14.50;99.90;;;;;;5050623;28;20055;-67
2022/06/06 02:20:19;;;;;;;11.85;8.77;;;14.50;99.90;;;;;;5047988;28;20036;-67
2022/06/06 02:22:45;;;;;;;12.20;8.93;;;14.50;99.90;;;;;;5050689;28;20641;-67
2022/06/06 02:25:12;;;;;;;9.55;7.22;;;14.50;99.90;;;;;;5052827;28;20068;-67
2022/06/06 02:27:40;;;;;;;12.85;8.68;;;14.50;99.90;;;;;;5051215;28;20033;-67
2022/06/06 02:30:13;;;;;;;10.85;8.23;;;14.50;99.90;;;;;;5035003;28;20049;-67
2022/06/06 02:32:39;;;;;;;13.27;8.57;;;14.50;99.90;;;;;;5051528;28;20033;-67
2022/06/06 02:35:07;;;;;;;18.50;9.18;;;14.50;99.90;;;;;;5049881;28;20110;-67
2022/06/06 02:37:33;;;;;;;10.23;6.95;;;14.50;99.90;;;;;;5048676;28;20481;-67
2022/06/06 02:39:58;;;;;;;14.88;9.18;;;14.50;99.90;;;;;;5050541;28;20052;-67
2022/06/06 02:42:24;;;;;;;9.45;7.28;;;14.50;99.90;;;;;;5049757;28;20040;-67
2022/06/06 02:44:50;;;;;;;12.57;8.98;;;14.40;99.90;;;;;;5034247;28;20041;-67
2022/06/06 02:47:15;;;;;;;21.92;11.43;;;14.50;99.90;;;;;;5049342;28;20120;-67
2022/06/06 02:49:41;;;;;;;13.32;10.55;;;14.50;99.90;;;;;;5029018;28;20052;-67
2022/06/06 02:52:07;;;;;;;16.92;11.43;;;14.50;99.90;;;;;;5051862;28;20071;-67
2022/06/06 02:54:33;;;;;;;15.48;10.80;;;14.60;99.90;;;;;;5051184;28;20619;-67
2022/06/06 02:56:59;;;;;;;21.88;12.43;;;14.50;99.90;;;;;;5049726;28;20041;-67
2022/06/06 02:59:28;;;;;;;22.63;14.18;;;14.50;99.90;;;;;;5048533;28;20060;-67
2022/06/06 03:01:53;;;;;;;24.45;16.00;;;14.60;99.90;;;;;;5030180;28;20052;-67
2022/06/06 03:04:20;;;;;;;26.35;19.02;;;14.60;99.90;;;;;;5051797;28;20400;-68
2022/06/06 03:07:10;;;;;;;24.83;19.67;;;14.50;99.90;;;;;;5033280;28;20041;-67
2022/06/06 03:10:16;;;;;;;42.70;25.90;;;14.50;99.90;;;;;;5031370;28;20597;-68
2022/06/06 03:12:58;;;;;;;60.80;31.67;;;14.50;99.90;;;;;;5020284;28;20342;-68
2022/06/06 03:20:46;;;;;;;92.90;40.38;;;14.40;99.90;;;;;;5050364;28;21239;-67
2022/06/06 03:22:12;;;;;;;77.95;40.38;;;14.40;99.90;;;;;;5023547;28;20155;-67
2022/06/06 03:24:48;;;;;;;112.90;47.13;;;14.30;99.90;;;;;;5050264;28;20542;-67
2022/06/06 03:27:32;;;;;;;93.88;41.90;;;14.30;99.90;;;;;;5044021;28;20468;-67
2022/06/06 03:30:18;;;;;;;72.07;35.95;;;14.30;99.90;;;;;;5048327;28;20043;-67
2022/06/06 03:33:03;;;;;;;52.58;29.42;;;14.30;99.90;;;;;;5050481;28;20041;-67
2022/06/06 03:35:39;;;;;;;68.97;31.67;;;14.30;99.90;;;;;;5029563;28;20041;-67
2022/06/06 03:38:05;;;;;;;40.05;22.98;;;14.30;99.90;;;;;;5047068;28;20088;-67
2022/06/06 03:40:50;;;;;;;35.63;21.13;;;14.20;99.90;;;;;;5048296;28;20080;-66
2022/06/06 03:43:34;;;;;;;51.38;26.80;;;14.20;99.90;;;;;;5048189;28;20082;-67
2022/06/06 03:46:14;;;;;;;44.45;25.42;;;14.10;99.90;;;;;;5050103;28;20101;-66
2022/06/06 03:49:14;;;;;;;37.17;23.48;;;14.10;99.90;;;;;;5047619;28;20402;-67
2022/06/06 03:52:02;;;;;;;41.75;20.52;;;14.10;99.90;;;;;;5024582;28;20051;-66
2022/06/06 03:54:45;;;;;;;31.05;16.70;;;14.10;99.90;;;;;;5026444;28;20049;-67
2022/06/06 03:57:17;;;;;;;30.90;16.27;;;14.10;99.90;;;;;;5045403;28;20349;-67
2022/06/06 03:59:47;;;;;;;27.55;15.07;;;14.10;99.90;;;;;;5028791;28;20128;-67
2022/06/06 04:02:20;;;;;;;26.45;13.63;;;14.10;99.90;;;;;;5031439;28;20048;-67
2022/06/06 04:04:46;;;;;;;25.80;12.73;;;14.10;99.90;;;;;;5047793;28;20051;-67
2022/06/06 04:07:12;;;;;;;23.08;11.43;;;14.00;99.90;;;;;;5049700;28;20091;-67
2022/06/06 04:09:37;;;;;;;27.40;12.35;;;14.00;99.90;;;;;;5030259;28;20045;-67
2022/06/06 04:12:26;;;;;;;17.73;9.60;;;14.00;99.90;;;;;;5041575;28;20045;-66
2022/06/06 04:15:00;;;;;;;23.08;10.52;;;14.00;99.90;;;;;;5042953;28;20045;-66
2022/06/06 04:17:39;;;;;;;21.70;11.02;;;14.00;99.90;;;;;;5026022;28;20049;-67
2022/06/06 04:20:26;;;;;;;22.30;11.65;;;14.00;99.90;;;;;;5044486;28;20564;-66
2022/06/06 04:23:39;;;;;;;35.88;15.02;;;14.00;99.90;;;;;;5020186;28;20128;-66
2022/06/06 04:26:17;;;;;;;28.88;14.57;;;13.90;99.90;;;;;;5043023;28;20037;-66
2022/06/06 04:28:50;;;;;;;30.75;16.13;;;13.90;99.90;;;;;;5040549;28;20049;-67
2022/06/06 04:31:47;;;;;;;35.03;17.15;;;13.90;99.90;;;;;;5046267;28;20048;-67
2022/06/06 04:34:21;;;;;;;40.80;16.55;;;13.80;99.90;;;;;;5027485;28;20057;-67
2022/06/06 04:37:07;;;;;;;34.35;17.15;;;13.80;99.90;;;;;;5022116;28;20049;-67
2022/06/06 04:39:56;;;;;;;45.20;19.25;;;13.80;99.90;;;;;;5026019;28;20053;-67
2022/06/06 04:42:48;;;;;;;37.25;17.23;;;13.80;99.90;;;;;;5045028;28;20115;-67
2022/06/06 04:45:38;;;;;;;38.35;16.67;;;13.80;99.90;;;;;;5038680;28;20120;-67
2022/06/06 04:48:05;;;;;;;26.98;15.90;;;13.80;99.90;;;;;;5025687;28;20559;-66
2022/06/06 04:50:33;;;;;;;40.10;17.65;;;13.70;99.90;;;;;;5019026;28;20133;-67
2022/06/06 04:53:08;;;;;;;49.85;18.88;;;13.80;99.90;;;;;;5042887;28;20743;-67
2022/06/06 04:55:37;;;;;;;40.58;18.52;;;13.80;99.90;;;;;;5041642;28;20033;-67
2022/06/06 04:58:05;;;;;;;47.17;19.65;;;13.80;99.90;;;;;;5024316;28;20052;-67
2022/06/06 05:00:36;;;;;;;36.97;17.00;;;13.80;99.90;;;;;;5026913;28;20498;-67
2022/06/06 05:03:02;;;;;;;32.92;16.35;;;13.80;99.90;;;;;;5044339;28;20037;-66
2022/06/06 05:05:47;;;;;;;30.92;16.15;;;13.80;99.90;;;;;;5024607;28;20045;-66
2022/06/06 05:08:19;;;;;;;;;;;13.80;99.90;;;;;;5042275;28;20049;-67
2022/06/06 05:11:07;;;;;;;32.13;15.18;;;13.70;99.90;;;;;;5042287;28;20338;-67
2022/06/06 05:13:41;;;;;;;28.90;14.70;;;13.70;99.90;;;;;;5024234;28;20042;-67
2022/06/06 05:16:10;;;;;;;25.40;13.48;;;13.80;99.90;;;;;;5022526;28;20044;-67
2022/06/06 05:19:13;;;;;;;25.55;14.30;;;13.80;99.90;;;;;;5042287;28;20099;-67
2022/06/06 05:21:54;;;;;;;28.05;13.48;;;13.80;99.90;;;;;;5023840;28;20045;-66
2022/06/06 05:24:47;;;;;;;38.20;14.70;;;13.70;99.90;;;;;;5047324;28;20037;-67
2022/06/06 05:27:26;;;;;;;22.35;12.27;;;13.80;99.90;;;;;;5039194;28;20103;-67
2022/06/06 05:30:40;;;;;;;18.65;12.20;;;13.80;99.90;;;;;;5044203;28;20047;-67
2022/06/06 05:33:24;;;;;;;25.77;13.10;;;13.80;99.90;;;;;;5000376;28;20684;-67
2022/06/06 05:36:14;;;;;;;21.27;12.32;;;13.80;99.90;;;;;;5040219;28;20051;-67
2022/06/06 05:39:10;;;;;;;19.60;11.70;;;13.80;99.90;;;;;;5040314;28;20550;-67
2022/06/06 05:41:50;;;;;;;21.05;12.20;;;13.80;99.90;;;;;;5042339;28;20133;-67
2022/06/06 05:44:22;;;;;;;23.63;12.55;;;13.80;99.90;;;;;;5041602;28;20033;-67
2022/06/06 05:47:09;;;;;;;21.85;12.75;;;13.80;99.90;;;;;;5024578;28;20082;-66
2022/06/06 05:50:15;;;;;;;25.15;13.35;;;13.80;99.90;;;;;;5022857;28;20049;-66
2022/06/06 05:52:59;;;;;;;;;;;13.80;99.90;;;;;;5014411;28;20385;-66
2022/06/06 05:55:32;;;;;;;23.38;13.52;;;13.80;99.90;;;;;;5043138;28;19929;-67
2022/06/06 05:58:22;;;;;;;21.23;12.65;;;13.80;99.90;;;;;;5038146;28;20037;-67
2022/06/06 06:01:03;;;;;;;19.95;13.10;;;13.90;99.90;;;;;;5042079;28;20037;-67
2022/06/06 06:03:37;;;;;;;23.80;13.10;;;13.90;99.90;;;;;;5035573;28;20499;-67
2022/06/06 06:06:03;;;;;;;;;;;13.90;99.90;;;;;;5034631;28;20095;-67
2022/06/06 06:08:43;;;;;;;26.77;14.63;;;13.80;99.90;;;;;;5045054;28;19917;-67
2022/06/06 06:11:39;;;;;;;43.05;18.25;;;13.90;99.90;;;;;;5048264;28;20364;-67
2022/06/06 06:14:17;;;;;;;31.80;15.70;;;13.90;99.90;;;;;;5048080;28;20041;-67
2022/06/06 06:16:49;;;;;;;35.47;17.63;;;13.90;99.90;;;;;;5044426;28;20048;-67
2022/06/06 06:19:22;;;;;;;39.80;18.10;;;14.00;99.90;;;;;;5043241;28;20087;-68
2022/06/06 06:21:54;;;;;;;33.67;17.23;;;14.00;99.90;;;;;;5032092;28;20061;-67
2022/06/06 06:24:32;;;;;;;38.03;16.88;;;14.00;99.90;;;;;;5050551;28;20122;-67
2022/06/06 06:27:01;;;;;;;37.00;17.48;;;14.10;99.90;;;;;;5049593;28;20040;-67
2022/06/06 06:29:27;;;;;;;35.47;17.27;;;14.10;99.90;;;;;;5050344;28;20102;-67
2022/06/06 06:32:08;;;;;;;31.17;16.10;;;14.20;99.90;;;;;;5029709;28;20053;-68
2022/06/06 06:34:52;;;;;;;30.13;15.20;;;14.20;99.90;;;;;;5033346;28;20048;-67
2022/06/06 06:37:42;;;;;;;24.33;13.50;;;14.30;99.90;;;;;;5051584;28;20069;-67
2022/06/06 06:40:08;;;;;;;25.52;13.25;;;14.60;99.90;;;;;;5049472;28;20059;-67
2022/06/06 06:42:54;;;;;;;20.27;11.70;;;14.80;99.90;;;;;;5041938;28;20061;-67
2022/06/06 06:45:44;;;;;;;26.17;15.25;;;15.00;99.90;;;;;;5048774;28;20123;-67
2022/06/06 06:48:13;;;;;;;18.40;11.48;;;15.10;99.90;;;;;;5042705;28;20075;-67
2022/06/06 06:51:02;;;;;;;18.05;10.90;;;15.20;99.90;;;;;;5046003;28;20549;-67
2022/06/06 06:53:31;;;;;;;16.80;10.20;;;15.30;99.90;;;;;;5049535;28;20033;-68
2022/06/06 06:56:41;;;;;;;16.83;10.45;;;15.40;99.90;;;;;;5049765;28;20400;-67
2022/06/06 06:59:21;;;;;;;18.23;10.80;;;15.50;99.90;;;;;;5050917;28;20037;-67
2022/06/06 07:11:09;;;;;;;14.35;9.13;;;15.80;99.90;;;;;;5030943;28;20053;-68
2022/06/06 07:13:48;;;;;;;15.45;9.75;;;16.00;99.90;;;;;;5030715;28;20132;-68
2022/06/06 07:16:19;;;;;;;14.35;9.18;;;16.10;99.90;;;;;;5052087;28;20120;-68
2022/06/06 07:18:47;;;;;;;18.40;9.73;;;16.10;99.90;;;;;;5025434;28;20049;-68
2022/06/06 07:21:15;;;;;;;15.88;9.25;;;16.10;99.90;;;;;;5049008;28;20064;-68
2022/06/06 07:23:43;;;;;;;12.10;9.88;;;16.10;99.90;;;;;;5051781;28;20071;-68
2022/06/06 07:26:11;;;;;;;13.85;9.27;;;16.00;99.90;;;;;;5032751;28;20049;-68
2022/06/06 07:28:37;;;;;;;10.77;7.25;;;15.90;99.90;;;;;;5044227;28;20037;-68
2022/06/06 07:31:31;;;;;;;9.30;7.68;;;15.80;99.90;;;;;;5030530;28;20061;-68
2022/06/06 07:34:48;;;;;;;10.18;7.40;;;15.70;99.90;;;;;;5031701;28;20477;-68
2022/06/06 07:37:21;;;;;;;12.40;6.90;;;15.60;99.90;;;;;;4986797;28;20085;-68
2022/06/06 07:40:00;;;;;;;10.00;7.22;;;15.50;99.90;;;;;;5046946;28;20041;-69
2022/06/06 07:42:48;;;;;;;11.45;7.07;;;15.40;99.90;;;;;;5050020;28;20063;-68
2022/06/06 07:45:30;;;;;;;11.20;8.05;;;15.50;99.90;;;;;;5028219;28;20070;-69
2022/06/06 07:48:32;;;;;;;15.07;9.48;;;15.70;99.90;;;;;;5030568;28;20555;-68
2022/06/06 07:51:08;;;;;;;15.23;9.73;;;16.00;99.90;;;;;;5030699;28;20053;-69
2022/06/06 07:53:34;;;;;;;12.85;8.25;;;16.20;99.90;;;;;;5048249;28;20032;-68
2022/06/06 07:56:22;;;;;;;11.30;9.25;;;16.20;99.90;;;;;;5027721;28;20336;-69
2022/06/06 07:59:08;;;;;;;136.00;121.78;;;16.20;99.90;;;;;;5026886;28;20047;-69
2022/06/06 08:01:43;;;;;;;18.75;15.23;;;16.10;99.90;;;;;;5047184;28;20127;-68
2022/06/06 08:04:21;;;;;;;16.55;11.18;;;15.90;99.90;;;;;;5049585;28;20045;-68
2022/06/06 08:07:10;;;;;;;17.92;11.95;;;15.80;99.90;;;;;;5049772;28;20068;-67
2022/06/06 08:09:52;;;;;;;20.23;12.18;;;15.70;99.90;;;;;;5030695;28;20049;-67
2022/06/06 08:12:38;;;;;;;16.63;11.05;;;15.70;99.90;;;;;;5039385;28;20053;-67
2022/06/06 08:15:14;;;;;;;16.15;10.88;;;15.70;99.90;;;;;;5023648;28;20123;-68
2022/06/06 08:18:09;;;;;;;13.32;8.98;;;15.80;99.90;;;;;;5046638;28;20044;-68
2022/06/06 08:20:58;;;;;;;12.65;8.75;;;16.00;99.90;;;;;;5047726;28;20040;-68
2022/06/06 08:23:25;;;;;;;11.68;7.18;;;16.40;99.90;;;;;;5025185;28;20119;-68
2022/06/06 08:25:52;;;;;;;10.75;7.18;;;16.50;99.90;;;;;;5047438;28;20042;-67
2022/06/06 08:28:19;;;;;;;12.38;6.45;;;16.40;99.90;;;;;;5047398;28;20049;-69
2022/06/06 08:30:46;;;;;;;10.40;5.50;;;16.40;99.90;;;;;;5047907;28;20652;-68
2022/06/06 08:33:12;;;;;;;8.07;5.68;;;16.30;99.90;;;;;;5024615;28;20052;-67
2022/06/06 08:35:56;;;;;;;6.93;5.22;;;16.20;99.90;;;;;;5048037;28;20618;-68
2022/06/06 08:39:01;;;;;;;9.00;5.55;;;16.10;99.90;;;;;;5028693;28;20052;-68
2022/06/06 08:41:39;;;;;;;9.90;5.60;;;16.00;99.90;;;;;;5048009;28;20116;-67
2022/06/06 08:44:16;;;;;;;9.60;4.80;;;15.80;99.90;;;;;;5046094;28;20028;-68
2022/06/06 08:47:01;;;;;;;9.15;4.25;;;15.70;99.90;;;;;;5026520;28;20103;-68
2022/06/06 08:53:11;;;;;;;6.45;3.88;;;15.50;99.90;;;;;;5048709;28;20049;-67
2022/06/06 08:55:58;;;;;;;8.55;4.28;;;16.10;99.90;;;;;;5050488;28;20049;-68
2022/06/06 08:58:41;;;;;;;7.72;3.70;;;16.70;99.90;;;;;;5029234;28;20052;-68
2022/06/06 09:01:32;;;;;;;5.18;3.28;;;17.40;99.90;;;;;;5031101;28;20114;-68
2022/06/06 09:04:00;;;;;;;5.78;2.53;;;17.70;99.90;;;;;;5047068;28;20473;-68
2022/06/06 09:06:57;;;;;;;5.20;2.47;;;17.70;99.90;;;;;;5048282;28;20088;-68
2022/06/06 09:09:28;;;;;;;5.25;2.10;;;17.40;99.90;;;;;;5047956;28;20423;-68
2022/06/06 09:12:23;;;;;;;4.50;2.20;;;17.20;99.90;;;;;;5046887;28;20507;-68
2022/06/06 09:15:19;;;;;;;7.10;2.25;;;17.50;99.90;;;;;;5045543;28;20064;-68
2022/06/06 09:18:17;;;;;;;3.35;1.55;;;18.30;99.90;;;;;;5045965;28;20374;-69
2022/06/06 09:21:06;;;;;;;4.35;1.70;;;18.90;99.90;;;;;;5023463;28;20132;-69
2022/06/06 09:23:53;;;;;;;7.25;2.67;;;18.90;99.90;;;;;;5045990;28;20029;-68
2022/06/06 09:27:04;;;;;;;9.77;3.30;;;18.50;99.90;;;;;;5047305;28;20036;-65
2022/06/06 09:29:51;;;;;;;6.35;2.60;;;17.70;99.90;;;;;;4965680;28;20070;-65
2022/06/06 09:32:31;;;;;;;8.82;3.90;;;17.00;99.90;;;;;;4963504;28;20707;-66
2022/06/06 09:35:19;;;;;;;9.02;3.30;;;16.70;99.90;;;;;;5028711;28;20041;-68
2022/06/06 09:38:02;;;;;;;6.97;3.05;;;16.40;99.90;;;;;;5047320;28;20458;-67
2022/06/06 09:40:57;;;;;;;26.48;19.42;;;16.40;99.90;;;;;;5031655;28;20466;-67
2022/06/06 09:43:41;;;;;;;;;;;16.50;99.90;;;;;;5019418;28;20060;-67
2022/06/06 09:46:47;;;;;;;6.95;3.20;;;16.60;99.90;;;;;;5045268;28;19932;-67
2022/06/06 09:49:34;;;;;;;5.53;1.40;;;16.60;99.90;;;;;;5031776;28;20087;-67
2022/06/06 09:52:29;;;;;;;4.25;1.25;;;16.40;99.90;;;;;;5027385;28;20142;-67
2022/06/06 10:01:29;;;;;;;13.25;6.82;;;16.30;99.90;;;;;;5033002;28;20055;-67
2022/06/06 10:04:27;;;;;;;7.13;5.15;;;16.80;99.90;;;;;;5027568;28;20064;-68
2022/06/06 10:07:05;;;;;;;9.30;4.57;;;17.50;99.90;;;;;;5050388;28;20454;-68
2022/06/06 10:09:58;;;;;;;4.63;1.85;;;17.60;99.90;;;;;;5049920;28;20037;-67
2022/06/06 10:12:41;;;;;;;6.60;1.50;;;17.50;99.90;;;;;;5030513;28;20049;-67
2022/06/06 10:15:30;;;;;;;5.93;1.70;;;17.00;99.90;;;;;;5029445;28;20064;-67
2022/06/06 10:18:08;;;;;;;4.18;1.15;;;16.70;99.90;;;;;;5047188;28;20637;-68
2022/06/06 10:20:45;;;;;;;4.43;1.67;;;16.60;99.90;;;;;;5034449;28;20133;-68
2022/06/06 10:23:41;;;;;;;3.30;1.52;;;16.60;99.90;;;;;;5049244;28;20380;-68
2022/06/06 10:26:29;;;;;;;4.72;2.30;;;16.70;99.90;;;;;;5050604;28;20464;-69
2022/06/06 10:30:10;;;;;;;4.65;2.85;;;17.20;99.90;;;;;;5033762;28;20520;-69
2022/06/06 10:33:08;;;;;;;5.95;2.50;;;18.00;99.90;;;;;;5027899;28;20174;-69
2022/06/06 10:36:16;;;;;;;4.70;2.75;;;18.40;99.90;;;;;;4990134;28;20497;-70
2022/06/06 10:39:01;;;;;;;3.13;1.15;;;18.50;99.90;;;;;;5048191;28;20040;-69
2022/06/06 10:41:46;;;;;;;6.25;1.85;;;18.90;99.90;;;;;;5028313;28;20134;-69
2022/06/06 10:44:43;;;;;;;5.97;1.77;;;19.30;99.90;;;;;;5044594;28;20434;-69
2022/06/06 10:47:30;;;;;;;4.03;1.10;;;19.80;99.90;;;;;;5050225;28;20052;-69
2022/06/06 10:50:10;;;;;;;3.33;1.25;;;20.30;99.90;;;;;;5024207;28;20068;-69
2022/06/06 10:52:51;;;;;;;5.90;1.58;;;20.30;99.90;;;;;;5010404;28;20087;-70
2022/06/06 10:55:42;;;;;;;8.52;1.48;;;20.00;99.90;;;;;;5026079;28;20037;-70
2022/06/06 10:58:46;;;;;;;5.55;1.75;;;19.50;99.90;;;;;;5028312;28;20069;-70
2022/06/06 11:01:42;;;;;;;3.67;1.13;;;18.90;99.90;;;;;;5025895;28;20049;-69
2022/06/06 11:04:36;;;;;;;3.67;1.88;;;18.80;99.90;;;;;;5023341;28;20034;-66
2022/06/06 11:07:40;;;;;;;4.13;1.67;;;19.10;99.90;;;;;;5027900;28;20049;-66
2022/06/06 11:10:18;;;;;;;3.65;1.55;;;19.60;99.90;;;;;;5028556;28;20129;-66
2022/06/06 11:12:55;;;;;;;3.40;1.23;;;20.10;99.90;;;;;;5026264;28;20041;-66
2022/06/06 11:15:21;;;;;;;2.45;1.00;;;20.40;99.90;;;;;;5031008;28;20077;-66
2022/06/06 11:18:08;;;;;;;4.05;1.10;;;20.80;99.90;;;;;;5030131;28;20385;-66
2022/06/06 11:20:55;;;;;;;3.60;1.10;;;21.20;99.90;;;;;;5030777;28;20045;-67
2022/06/06 11:23:43;;;;;;;2.92;0.85;;;21.30;99.90;;;;;;5027083;28;20535;-67
2022/06/06 11:26:27;;;;;;;1.23;0.40;;;21.00;99.90;;;;;;5026570;28;20058;-67
2022/06/06 11:29:20;;;;;;;1.95;0.80;;;20.50;99.90;;;;;;5022535;28;20057;-66
2022/06/06 11:32:24;;;;;;;4.75;1.40;;;20.20;99.90;;;;;;5025394;28;20033;-67
2022/06/06 11:35:14;;;;;;;1.77;0.80;;;20.00;99.90;;;;;;5026589;28;20731;-67
2022/06/06 11:37:58;;;;;;;2.35;0.85;;;20.40;99.90;;;;;;5026585;28;20035;-67
2022/06/06 11:41:01;;;;;;;1.90;0.65;;;21.10;99.90;;;;;;5028685;28;20049;-67
2022/06/06 11:43:58;;;;;;;3.85;0.80;;;21.40;99.90;;;;;;5025591;28;20122;-67
2022/06/06 11:46:49;;;;;;;1.92;0.68;;;21.60;99.90;;;;;;5037948;28;20073;-68
2022/06/06 11:49:52;;;;;;;2.90;0.80;;;21.80;99.90;;;;;;5030758;28;20505;-69
2022/06/06 11:52:55;;;;;;;2.50;0.60;;;22.20;99.90;;;;;;5048534;28;20033;-68
2022/06/06 11:55:26;;;;;;;2.65;0.80;;;22.60;99.90;;;;;;5044347;28;20047;-68
2022/06/06 11:58:29;;;;;;;3.58;0.70;;;22.70;99.90;;;;;;5048927;28;20041;-68
2022/06/06 12:01:42;;;;;;;5.07;0.70;;;22.70;99.90;;;;;;5031314;28;20060;-68
2022/06/06 12:04:27;;;;;;;3.08;0.40;;;22.30;99.90;;;;;;5048497;28;20040;-69
2022/06/06 12:07:20;;;;;;;;;;;21.90;99.90;;;;;;5047781;28;20072;-69
2022/06/06 12:10:05;;;;;;;3.10;0.30;;;21.50;99.90;;;;;;5042333;28;19921;-68
2022/06/06 12:12:52;;;;;;;1.98;0.30;;;21.40;99.90;;;;;;5032218;28;20491;-68
2022/06/06 12:15:36;;;;;;;1.98;0.20;;;21.30;99.90;;;;;;5042866;28;20043;-68
2022/06/06 12:18:17;;;;;;;0.93;0.20;;;21.20;99.90;;;;;;5027514;28;20056;-68
2022/06/06 12:21:10;;;;;;;6.78;0.30;;;21.20;99.90;;;;;;5029841;28;20064;-68
2022/06/06 12:24:10;;;;;;;1.58;0.30;;;21.10;99.90;;;;;;5048472;28;20041;-68
2022/06/06 12:27:08;;;;;;;0.80;0.10;;;21.10;99.90;;;;;;5030217;28;20727;-68
2022/06/06 12:29:34;;;;;;;3.83;0.30;;;21.00;99.90;;;;;;5025165;28;20468;-68
2022/06/06 12:32:09;;;;;;;1.20;0.30;;;21.10;99.90;;;;;;5049397;28;20052;-68
2022/06/06 12:34:44;;;;;;;2.97;0.35;;;20.90;99.90;;;;;;5023650;28;20045;-68
2022/06/06 12:37:31;;;;;;;2.65;0.30;;;20.70;99.90;;;;;;5046890;28;20037;-68
2022/06/06 12:40:17;;;;;;;2.40;0.40;;;20.50;99.90;;;;;;5047807;28;20381;-68
2022/06/06 12:43:10;;;;;;;1.45;0.43;;;20.20;99.90;;;;;;5031660;28;20037;-68
2022/06/06 12:45:53;;;;;;;3.22;0.50;;;20.00;99.90;;;;;;5029176;28;20047;-68
2022/06/06 12:48:38;;;;;;;4.47;0.70;;;19.60;99.90;;;;;;5033114;28;20829;-68
2022/06/06 12:51:32;;;;;;;4.18;0.45;;;19.40;99.90;;;;;;5048267;28;20136;-68
2022/06/06 12:54:29;;;;;;;2.63;0.60;;;19.50;99.90;;;;;;5025496;28;20470;-68
2022/06/06 12:56:57;;;;;;;2.67;0.40;;;19.60;99.90;;;;;;5032875;28;20048;-70
2022/06/06 12:59:26;;;;;;;3.38;0.50;;;19.80;99.90;;;;;;5029622;28;20052;-69
2022/06/06 13:01:51;;;;;;;1.88;0.52;;;19.90;99.90;;;;;;5046602;28;20044;-70
2022/06/06 13:04:29;;;;;;;3.10;0.55;;;19.80;99.90;;;;;;5029133;28;20040;-70
2022/06/06 13:07:03;;;;;;;2.22;0.50;;;19.70;99.90;;;;;;5027730;28;20799;-69
2022/06/06 13:09:48;;;;;;;3.08;0.45;;;19.60;99.90;;;;;;5047334;28;20055;-69
2022/06/06 13:12:24;;;;;;;2.38;0.52;;;19.50;99.90;;;;;;5025258;28;20045;-69
2022/06/06 13:15:33;;;;;;;1.33;0.32;;;19.40;99.90;;;;;;5030324;28;20041;-69
2022/06/06 13:18:37;;;;;;;1.60;0.63;;;19.40;99.90;;;;;;5049197;28;20042;-69
2022/06/06 13:21:07;;;;;;;0.30;0.20;;;19.30;99.90;;;;;;5032490;28;20136;-69
2022/06/06 13:24:21;;;;;;;2.03;0.35;;;19.20;99.90;;;;;;5031139;28;20071;-70
2022/06/06 13:26:50;;;;;;;2.28;0.30;;;19.10;99.90;;;;;;4941080;28;20126;-69
2022/06/06 13:29:31;;;;;;;2.60;0.55;;;18.90;99.90;;;;;;5053759;28;20032;-69
2022/06/06 13:32:42;;;;;;;0.73;0.30;;;18.70;99.90;;;;;;5027418;28;20606;-69
2022/06/06 13:35:57;;;;;;;2.35;0.68;;;18.50;99.90;;;;;;5027862;28;20052;-69
2022/06/06 13:38:48;;;;;;;3.85;0.60;;;18.30;99.90;;;;;;5021046;28;20139;-71
2022/06/06 13:41:17;;;;;;;3.88;0.57;;;18.10;99.90;;;;;;5032813;28;20056;-75
2022/06/06 13:44:08;;;;;;;3.55;1.15;;;17.90;99.90;;;;;;5010978;28;20045;-77
2022/06/06 13:47:03;;;;;;;3.55;1.02;;;17.70;99.90;;;;;;5030147;28;20053;-74
2022/06/06 13:49:42;;;;;;;2.63;1.60;;;17.30;99.90;;;;;;5011733;28;20063;-73
2022/06/06 13:52:31;;;;;;;3.55;1.30;;;16.90;99.90;;;;;;5011423;28;20132;-72
2022/06/06 13:55:32;;;;;;;3.63;2.25;;;16.70;99.90;;;;;;5032932;28;20049;-74
2022/06/06 13:58:28;;;;;;;6.47;1.85;;;16.50;99.90;;;;;;5016683;28;20041;-76
2022/06/06 14:01:06;;;;;;;5.18;2.17;;;16.40;99.90;;;;;;5030512;28;20057;-77
2022/06/06 14:04:10;;;;;;;1.55;1.38;;;16.30;99.90;;;;;;5016520;28;20182;-76
2022/06/06 14:06:53;;;;;;;4.18;1.98;;;16.20;99.90;;;;;;4983185;28;20491;-76
2022/06/06 14:09:38;;;;;;;5.07;2.05;;;16.00;99.90;;;;;;5032896;28;20135;-75
2022/06/06 14:12:13;;;;;;;2.35;1.80;;;15.90;99.90;;;;;;5027879;28;20049;-74
2022/06/06 14:14:39;;;;;;;5.22;2.45;;;15.90;99.90;;;;;;5009620;28;20036;-73
2022/06/06 14:17:14;;;;;;;3.67;2.45;;;15.80;99.90;;;;;;5026598;28;20070;-74